sensor_id;sensor_type;location;lat;lon;timestamp;P1;durP1;ratioP1;P2;durP2;ratioP2
58647;SDS011;45992;45.920;20.074;2023-01-28T00:00:04;42.35;;;26.67;;
58647;SDS011;45992;45.920;20.074;2023-01-28T00:02:31;37.72;;;24.85;;
58647;SDS011;45992;45.920;20.074;2023-01-28T00:04:57;38.63;;;23.58;;
58647;SDS011;45992;45.920;20.074;2023-01-28T00:07:24;38.60;;;23.98;;
58647;SDS011;45992;45.920;20.074;2023-01-28T00:09:50;37.67;;;23.70;;
58647;SDS011;45992;45.920;20.074;2023-01-28T00:12:16;39.72;;;24.13;;
58647;SDS011;45992;45.920;20.074;2023-01-28T00:14:42;42.92;;;25.85;;
58647;SDS011;45992;45.920;20.074;2023-01-28T00:17:10;32.00;;;20.60;;
58647;SDS011;45992;45.920;20.074;2023-01-28T00:19:36;39.83;;;23.33;;
58647;SDS011;45992;45.920;20.074;2023-01-28T00:22:03;35.50;;;23.35;;
58647;SDS011;45992;45.920;20.074;2023-01-28T00:24:29;38.33;;;22.95;;
58647;SDS011;45992;45.920;20.074;2023-01-28T00:26:55;35.17;;;23.05;;
58647;SDS011;45992;45.920;20.074;2023-01-28T00:29:21;33.40;;;21.30;;
58647;SDS011;45992;45.920;20.074;2023-01-28T00:31:48;36.30;;;22.93;;
58647;SDS011;45992;45.920;20.074;2023-01-28T00:34:14;34.15;;;21.90;;
58647;SDS011;45992;45.920;20.074;2023-01-28T00:36:40;34.47;;;21.63;;
58647;SDS011;45992;45.920;20.074;2023-01-28T00:39:09;38.70;;;23.48;;
58647;SDS011;45992;45.920;20.074;2023-01-28T00:41:36;36.92;;;22.85;;
58647;SDS011;45992;45.920;20.074;2023-01-28T00:44:02;33.95;;;21.63;;
58647;SDS011;45992;45.920;20.074;2023-01-28T00:46:28;44.28;;;24.73;;
58647;SDS011;45992;45.920;20.074;2023-01-28T00:48:55;33.20;;;20.83;;
58647;SDS011;45992;45.920;20.074;2023-01-28T00:51:21;42.35;;;24.05;;
58647;SDS011;45992;45.920;20.074;2023-01-28T00:53:48;35.10;;;23.75;;
58647;SDS011;45992;45.920;20.074;2023-01-28T00:56:14;38.13;;;23.95;;
58647;SDS011;45992;45.920;20.074;2023-01-28T00:58:42;35.10;;;21.08;;
58647;SDS011;45992;45.920;20.074;2023-01-28T01:01:12;35.65;;;20.67;;
58647;SDS011;45992;45.920;20.074;2023-01-28T01:03:39;32.80;;;20.38;;
58647;SDS011;45992;45.920;20.074;2023-01-28T01:06:06;34.92;;;21.58;;
58647;SDS011;45992;45.920;20.074;2023-01-28T01:08:32;37.55;;;21.33;;
58647;SDS011;45992;45.920;20.074;2023-01-28T01:11:03;31.85;;;20.25;;
58647;SDS011;45992;45.920;20.074;2023-01-28T01:13:29;36.65;;;20.50;;
58647;SDS011;45992;45.920;20.074;2023-01-28T01:16:03;34.63;;;20.52;;
58647;SDS011;45992;45.920;20.074;2023-01-28T01:18:30;34.50;;;21.15;;
58647;SDS011;45992;45.920;20.074;2023-01-28T01:20:56;37.25;;;22.67;;
58647;SDS011;45992;45.920;20.074;2023-01-28T01:23:24;35.92;;;21.70;;
58647;SDS011;45992;45.920;20.074;2023-01-28T01:25:50;29.65;;;18.80;;
58647;SDS011;45992;45.920;20.074;2023-01-28T01:28:17;41.13;;;22.33;;
58647;SDS011;45992;45.920;20.074;2023-01-28T01:30:44;38.53;;;22.40;;
58647;SDS011;45992;45.920;20.074;2023-01-28T01:33:11;33.17;;;19.65;;
58647;SDS011;45992;45.920;20.074;2023-01-28T01:35:37;34.33;;;19.77;;
58647;SDS011;45992;45.920;20.074;2023-01-28T01:38:04;33.60;;;20.23;;
58647;SDS011;45992;45.920;20.074;2023-01-28T01:40:30;35.72;;;21.38;;
58647;SDS011;45992;45.920;20.074;2023-01-28T01:42:56;31.73;;;20.52;;
58647;SDS011;45992;45.920;20.074;2023-01-28T01:45:22;48.67;;;28.92;;
58647;SDS011;45992;45.920;20.074;2023-01-28T01:47:56;40.47;;;24.33;;
58647;SDS011;45992;45.920;20.074;2023-01-28T01:52:54;37.28;;;23.27;;
58647;SDS011;45992;45.920;20.074;2023-01-28T01:55:21;38.95;;;24.08;;
58647;SDS011;45992;45.920;20.074;2023-01-28T01:57:48;40.92;;;25.35;;
58647;SDS011;45992;45.920;20.074;2023-01-28T02:00:17;42.22;;;25.55;;
58647;SDS011;45992;45.920;20.074;2023-01-28T02:02:45;49.45;;;28.42;;
58647;SDS011;45992;45.920;20.074;2023-01-28T02:05:13;39.25;;;24.63;;
58647;SDS011;45992;45.920;20.074;2023-01-28T02:07:40;43.63;;;27.40;;
58647;SDS011;45992;45.920;20.074;2023-01-28T02:12:33;43.78;;;28.45;;
58647;SDS011;45992;45.920;20.074;2023-01-28T02:15:01;45.22;;;26.90;;
58647;SDS011;45992;45.920;20.074;2023-01-28T02:17:28;42.03;;;26.73;;
58647;SDS011;45992;45.920;20.074;2023-01-28T02:19:58;43.53;;;27.10;;
58647;SDS011;45992;45.920;20.074;2023-01-28T02:30:14;42.08;;;26.90;;
58647;SDS011;45992;45.920;20.074;2023-01-28T02:35:36;70.50;;;39.05;;
58647;SDS011;45992;45.920;20.074;2023-01-28T02:40:33;43.90;;;24.20;;
58647;SDS011;45992;45.920;20.074;2023-01-28T02:45:58;52.97;;;29.75;;
58647;SDS011;45992;45.920;20.074;2023-01-28T02:48:43;52.50;;;31.38;;
58647;SDS011;45992;45.920;20.074;2023-01-28T02:51:22;44.50;;;29.48;;
58647;SDS011;45992;45.920;20.074;2023-01-28T02:53:50;51.08;;;30.98;;
58647;SDS011;45992;45.920;20.074;2023-01-28T03:01:52;49.03;;;29.15;;
58647;SDS011;45992;45.920;20.074;2023-01-28T03:04:30;44.17;;;26.73;;
58647;SDS011;45992;45.920;20.074;2023-01-28T03:06:57;48.42;;;29.77;;
58647;SDS011;45992;45.920;20.074;2023-01-28T03:09:28;49.33;;;28.02;;
58647;SDS011;45992;45.920;20.074;2023-01-28T03:14:44;46.63;;;26.15;;
58647;SDS011;45992;45.920;20.074;2023-01-28T03:20:17;46.00;;;29.55;;
58647;SDS011;45992;45.920;20.074;2023-01-28T03:23:06;48.92;;;28.60;;
58647;SDS011;45992;45.920;20.074;2023-01-28T03:25:52;44.03;;;26.08;;
58647;SDS011;45992;45.920;20.074;2023-01-28T03:28:39;41.83;;;26.20;;
58647;SDS011;45992;45.920;20.074;2023-01-28T03:31:26;36.55;;;22.20;;
58647;SDS011;45992;45.920;20.074;2023-01-28T03:34:12;47.25;;;28.98;;
58647;SDS011;45992;45.920;20.074;2023-01-28T03:36:57;46.17;;;28.35;;
58647;SDS011;45992;45.920;20.074;2023-01-28T03:39:25;41.65;;;23.35;;
58647;SDS011;45992;45.920;20.074;2023-01-28T03:41:55;45.78;;;26.98;;
58647;SDS011;45992;45.920;20.074;2023-01-28T03:44:22;41.10;;;24.58;;
58647;SDS011;45992;45.920;20.074;2023-01-28T03:47:07;38.58;;;23.08;;
58647;SDS011;45992;45.920;20.074;2023-01-28T03:49:36;36.83;;;20.92;;
58647;SDS011;45992;45.920;20.074;2023-01-28T03:52:02;40.10;;;24.85;;
58647;SDS011;45992;45.920;20.074;2023-01-28T03:54:28;43.42;;;24.40;;
58647;SDS011;45992;45.920;20.074;2023-01-28T03:56:55;44.33;;;25.30;;
58647;SDS011;45992;45.920;20.074;2023-01-28T03:59:21;41.60;;;25.98;;
58647;SDS011;45992;45.920;20.074;2023-01-28T04:01:47;33.80;;;21.88;;
58647;SDS011;45992;45.920;20.074;2023-01-28T04:04:15;40.58;;;25.23;;
58647;SDS011;45992;45.920;20.074;2023-01-28T04:06:51;34.50;;;21.85;;
58647;SDS011;45992;45.920;20.074;2023-01-28T04:09:18;38.90;;;24.40;;
58647;SDS011;45992;45.920;20.074;2023-01-28T04:14:11;36.28;;;23.17;;
58647;SDS011;45992;45.920;20.074;2023-01-28T04:16:37;35.88;;;23.45;;
58647;SDS011;45992;45.920;20.074;2023-01-28T04:19:03;38.50;;;22.65;;
58647;SDS011;45992;45.920;20.074;2023-01-28T04:21:30;38.78;;;23.48;;
58647;SDS011;45992;45.920;20.074;2023-01-28T04:23:56;41.20;;;23.43;;
58647;SDS011;45992;45.920;20.074;2023-01-28T04:26:22;35.33;;;21.43;;
58647;SDS011;45992;45.920;20.074;2023-01-28T04:28:48;37.83;;;22.95;;
58647;SDS011;45992;45.920;20.074;2023-01-28T04:31:14;36.42;;;22.83;;
58647;SDS011;45992;45.920;20.074;2023-01-28T04:33:40;35.47;;;23.20;;
58647;SDS011;45992;45.920;20.074;2023-01-28T04:36:07;54.57;;;33.93;;
58647;SDS011;45992;45.920;20.074;2023-01-28T04:38:33;43.70;;;29.45;;
58647;SDS011;45992;45.920;20.074;2023-01-28T04:40:59;47.13;;;31.00;;
58647;SDS011;45992;45.920;20.074;2023-01-28T04:43:25;40.33;;;25.17;;
58647;SDS011;45992;45.920;20.074;2023-01-28T04:45:51;44.40;;;27.98;;
58647;SDS011;45992;45.920;20.074;2023-01-28T04:48:18;52.20;;;32.20;;
58647;SDS011;45992;45.920;20.074;2023-01-28T04:50:44;35.08;;;22.73;;
58647;SDS011;45992;45.920;20.074;2023-01-28T04:53:10;43.95;;;27.67;;
58647;SDS011;45992;45.920;20.074;2023-01-28T04:55:37;41.53;;;27.23;;
58647;SDS011;45992;45.920;20.074;2023-01-28T04:58:03;47.20;;;27.37;;
58647;SDS011;45992;45.920;20.074;2023-01-28T05:00:29;55.85;;;33.85;;
58647;SDS011;45992;45.920;20.074;2023-01-28T05:02:55;44.93;;;27.00;;
58647;SDS011;45992;45.920;20.074;2023-01-28T05:05:21;48.13;;;28.50;;
58647;SDS011;45992;45.920;20.074;2023-01-28T05:07:51;47.60;;;28.37;;
58647;SDS011;45992;45.920;20.074;2023-01-28T05:10:18;42.88;;;25.95;;
58647;SDS011;45992;45.920;20.074;2023-01-28T05:12:45;47.13;;;28.27;;
58647;SDS011;45992;45.920;20.074;2023-01-28T05:15:11;49.22;;;30.80;;
58647;SDS011;45992;45.920;20.074;2023-01-28T05:17:37;35.50;;;22.40;;
58647;SDS011;45992;45.920;20.074;2023-01-28T05:20:04;40.50;;;23.98;;
58647;SDS011;45992;45.920;20.074;2023-01-28T05:24:56;38.13;;;26.27;;
58647;SDS011;45992;45.920;20.074;2023-01-28T05:27:22;39.22;;;23.83;;
58647;SDS011;45992;45.920;20.074;2023-01-28T05:29:49;41.25;;;26.40;;
58647;SDS011;45992;45.920;20.074;2023-01-28T05:32:15;56.17;;;33.45;;
58647;SDS011;45992;45.920;20.074;2023-01-28T05:34:41;39.53;;;25.40;;
58647;SDS011;45992;45.920;20.074;2023-01-28T05:37:07;41.03;;;25.33;;
58647;SDS011;45992;45.920;20.074;2023-01-28T05:39:33;44.53;;;26.27;;
58647;SDS011;45992;45.920;20.074;2023-01-28T05:41:59;42.78;;;27.75;;
58647;SDS011;45992;45.920;20.074;2023-01-28T05:44:26;48.10;;;31.88;;
58647;SDS011;45992;45.920;20.074;2023-01-28T05:46:52;42.60;;;27.13;;
58647;SDS011;45992;45.920;20.074;2023-01-28T05:49:18;48.27;;;29.47;;
58647;SDS011;45992;45.920;20.074;2023-01-28T05:51:44;56.97;;;34.67;;
58647;SDS011;45992;45.920;20.074;2023-01-28T05:54:12;44.60;;;29.23;;
58647;SDS011;45992;45.920;20.074;2023-01-28T05:56:38;46.42;;;31.13;;
58647;SDS011;45992;45.920;20.074;2023-01-28T05:59:04;45.65;;;27.90;;
58647;SDS011;45992;45.920;20.074;2023-01-28T06:01:31;41.77;;;25.17;;
58647;SDS011;45992;45.920;20.074;2023-01-28T06:03:57;43.08;;;26.23;;
58647;SDS011;45992;45.920;20.074;2023-01-28T06:08:50;42.30;;;26.77;;
58647;SDS011;45992;45.920;20.074;2023-01-28T06:11:16;42.17;;;27.80;;
58647;SDS011;45992;45.920;20.074;2023-01-28T06:13:42;45.43;;;26.60;;
58647;SDS011;45992;45.920;20.074;2023-01-28T06:16:08;40.13;;;25.57;;
58647;SDS011;45992;45.920;20.074;2023-01-28T06:18:35;43.40;;;26.60;;
58647;SDS011;45992;45.920;20.074;2023-01-28T06:21:01;43.88;;;28.13;;
58647;SDS011;45992;45.920;20.074;2023-01-28T06:23:27;47.17;;;30.10;;
58647;SDS011;45992;45.920;20.074;2023-01-28T06:25:54;46.63;;;30.60;;
58647;SDS011;45992;45.920;20.074;2023-01-28T06:30:47;38.03;;;23.02;;
58647;SDS011;45992;45.920;20.074;2023-01-28T06:33:13;45.05;;;28.52;;
58647;SDS011;45992;45.920;20.074;2023-01-28T06:35:40;42.25;;;27.17;;
58647;SDS011;45992;45.920;20.074;2023-01-28T06:38:06;45.33;;;28.65;;
58647;SDS011;45992;45.920;20.074;2023-01-28T06:40:33;46.50;;;28.83;;
58647;SDS011;45992;45.920;20.074;2023-01-28T06:42:59;51.85;;;31.13;;
58647;SDS011;45992;45.920;20.074;2023-01-28T06:45:25;49.42;;;30.95;;
58647;SDS011;45992;45.920;20.074;2023-01-28T06:47:51;43.38;;;25.70;;
58647;SDS011;45992;45.920;20.074;2023-01-28T06:50:17;52.45;;;31.00;;
58647;SDS011;45992;45.920;20.074;2023-01-28T06:52:44;62.45;;;35.70;;
58647;SDS011;45992;45.920;20.074;2023-01-28T06:55:10;89.22;;;45.53;;
58647;SDS011;45992;45.920;20.074;2023-01-28T06:57:37;97.55;;;47.75;;
58647;SDS011;45992;45.920;20.074;2023-01-28T07:00:04;77.70;;;41.30;;
58647;SDS011;45992;45.920;20.074;2023-01-28T07:02:31;45.90;;;27.58;;
58647;SDS011;45992;45.920;20.074;2023-01-28T07:04:57;53.33;;;32.05;;
58647;SDS011;45992;45.920;20.074;2023-01-28T07:07:23;59.22;;;33.92;;
58647;SDS011;45992;45.920;20.074;2023-01-28T07:09:49;62.53;;;42.00;;
58647;SDS011;45992;45.920;20.074;2023-01-28T07:12:15;52.57;;;33.53;;
58647;SDS011;45992;45.920;20.074;2023-01-28T07:14:42;44.15;;;27.80;;
58647;SDS011;45992;45.920;20.074;2023-01-28T07:17:08;51.40;;;32.27;;
58647;SDS011;45992;45.920;20.074;2023-01-28T07:19:34;48.93;;;28.47;;
58647;SDS011;45992;45.920;20.074;2023-01-28T07:22:00;54.65;;;32.20;;
58647;SDS011;45992;45.920;20.074;2023-01-28T07:26:53;47.85;;;27.15;;
58647;SDS011;45992;45.920;20.074;2023-01-28T07:29:19;43.25;;;27.23;;
58647;SDS011;45992;45.920;20.074;2023-01-28T07:31:45;47.73;;;29.63;;
58647;SDS011;45992;45.920;20.074;2023-01-28T07:34:11;52.53;;;31.70;;
58647;SDS011;45992;45.920;20.074;2023-01-28T07:36:38;43.70;;;27.25;;
58647;SDS011;45992;45.920;20.074;2023-01-28T07:39:04;51.30;;;30.65;;
58647;SDS011;45992;45.920;20.074;2023-01-28T07:41:33;45.13;;;28.27;;
58647;SDS011;45992;45.920;20.074;2023-01-28T07:43:59;48.15;;;29.13;;
58647;SDS011;45992;45.920;20.074;2023-01-28T07:46:26;42.78;;;28.25;;
58647;SDS011;45992;45.920;20.074;2023-01-28T07:48:53;49.47;;;31.55;;
58647;SDS011;45992;45.920;20.074;2023-01-28T07:51:19;39.20;;;25.88;;
58647;SDS011;45992;45.920;20.074;2023-01-28T07:53:45;42.60;;;28.93;;
58647;SDS011;45992;45.920;20.074;2023-01-28T07:56:11;44.22;;;26.90;;
58647;SDS011;45992;45.920;20.074;2023-01-28T07:58:37;66.87;;;36.23;;
58647;SDS011;45992;45.920;20.074;2023-01-28T08:01:04;65.70;;;38.70;;
58647;SDS011;45992;45.920;20.074;2023-01-28T08:03:30;63.38;;;34.67;;
58647;SDS011;45992;45.920;20.074;2023-01-28T08:05:56;65.95;;;40.20;;
58647;SDS011;45992;45.920;20.074;2023-01-28T08:08:23;54.33;;;37.33;;
58647;SDS011;45992;45.920;20.074;2023-01-28T08:10:50;51.53;;;34.55;;
58647;SDS011;45992;45.920;20.074;2023-01-28T08:15:43;64.18;;;39.10;;
58647;SDS011;45992;45.920;20.074;2023-01-28T08:18:09;92.93;;;47.53;;
58647;SDS011;45992;45.920;20.074;2023-01-28T08:20:39;136.98;;;67.80;;
58647;SDS011;45992;45.920;20.074;2023-01-28T08:23:14;94.53;;;50.95;;
58647;SDS011;45992;45.920;20.074;2023-01-28T08:25:41;79.38;;;45.30;;
58647;SDS011;45992;45.920;20.074;2023-01-28T08:28:07;69.15;;;43.67;;
58647;SDS011;45992;45.920;20.074;2023-01-28T08:30:34;59.92;;;39.35;;
58647;SDS011;45992;45.920;20.074;2023-01-28T08:33:02;54.35;;;35.35;;
58647;SDS011;45992;45.920;20.074;2023-01-28T08:35:28;52.55;;;35.55;;
58647;SDS011;45992;45.920;20.074;2023-01-28T08:37:57;47.70;;;31.45;;
58647;SDS011;45992;45.920;20.074;2023-01-28T08:40:24;59.50;;;36.78;;
58647;SDS011;45992;45.920;20.074;2023-01-28T08:42:51;49.25;;;30.45;;
58647;SDS011;45992;45.920;20.074;2023-01-28T08:45:18;42.35;;;28.80;;
58647;SDS011;45992;45.920;20.074;2023-01-28T08:47:53;41.25;;;26.65;;
58647;SDS011;45992;45.920;20.074;2023-01-28T08:50:20;40.42;;;28.10;;
58647;SDS011;45992;45.920;20.074;2023-01-28T08:52:47;48.28;;;30.00;;
58647;SDS011;45992;45.920;20.074;2023-01-28T08:57:39;51.78;;;33.47;;
58647;SDS011;45992;45.920;20.074;2023-01-28T09:00:06;65.67;;;43.50;;
58647;SDS011;45992;45.920;20.074;2023-01-28T09:02:35;50.28;;;30.35;;
58647;SDS011;45992;45.920;20.074;2023-01-28T09:05:01;48.67;;;32.08;;
58647;SDS011;45992;45.920;20.074;2023-01-28T09:07:27;47.20;;;30.98;;
58647;SDS011;45992;45.920;20.074;2023-01-28T09:09:53;39.72;;;24.35;;
58647;SDS011;45992;45.920;20.074;2023-01-28T09:12:19;51.27;;;32.53;;
58647;SDS011;45992;45.920;20.074;2023-01-28T09:14:46;36.90;;;24.70;;
58647;SDS011;45992;45.920;20.074;2023-01-28T09:17:12;72.60;;;43.63;;
58647;SDS011;45992;45.920;20.074;2023-01-28T09:19:38;43.72;;;28.02;;
58647;SDS011;45992;45.920;20.074;2023-01-28T09:22:04;44.45;;;29.40;;
58647;SDS011;45992;45.920;20.074;2023-01-28T09:24:30;41.28;;;26.20;;
58647;SDS011;45992;45.920;20.074;2023-01-28T09:26:56;39.78;;;25.13;;
58647;SDS011;45992;45.920;20.074;2023-01-28T09:29:23;40.38;;;26.30;;
58647;SDS011;45992;45.920;20.074;2023-01-28T09:31:49;37.88;;;24.88;;
58647;SDS011;45992;45.920;20.074;2023-01-28T09:34:15;39.10;;;25.15;;
58647;SDS011;45992;45.920;20.074;2023-01-28T09:36:41;36.55;;;22.92;;
58647;SDS011;45992;45.920;20.074;2023-01-28T09:39:07;36.33;;;22.45;;
58647;SDS011;45992;45.920;20.074;2023-01-28T09:46:42;45.25;;;27.48;;
58647;SDS011;45992;45.920;20.074;2023-01-28T09:51:55;46.15;;;27.23;;
58647;SDS011;45992;45.920;20.074;2023-01-28T09:54:37;40.03;;;25.35;;
58647;SDS011;45992;45.920;20.074;2023-01-28T09:57:30;42.08;;;25.42;;
58647;SDS011;45992;45.920;20.074;2023-01-28T09:59:51;39.20;;;24.73;;
58647;SDS011;45992;45.920;20.074;2023-01-28T10:05:15;37.92;;;23.95;;
58647;SDS011;45992;45.920;20.074;2023-01-28T10:10:43;42.75;;;26.67;;
58647;SDS011;45992;45.920;20.074;2023-01-28T10:15:46;49.42;;;28.50;;
58647;SDS011;45992;45.920;20.074;2023-01-28T10:18:14;58.25;;;33.70;;
58647;SDS011;45992;45.920;20.074;2023-01-28T10:23:33;45.30;;;28.27;;
58647;SDS011;45992;45.920;20.074;2023-01-28T10:25:56;52.63;;;30.77;;
58647;SDS011;45992;45.920;20.074;2023-01-28T10:28:25;47.22;;;28.33;;
58647;SDS011;45992;45.920;20.074;2023-01-28T10:30:52;39.85;;;23.52;;
58647;SDS011;45992;45.920;20.074;2023-01-28T10:35:45;53.28;;;31.55;;
58647;SDS011;45992;45.920;20.074;2023-01-28T10:38:13;41.75;;;25.58;;
58647;SDS011;45992;45.920;20.074;2023-01-28T10:40:44;34.22;;;22.08;;
58647;SDS011;45992;45.920;20.074;2023-01-28T10:43:16;39.10;;;25.60;;
58647;SDS011;45992;45.920;20.074;2023-01-28T10:48:34;37.88;;;24.77;;
58647;SDS011;45992;45.920;20.074;2023-01-28T10:51:02;44.83;;;27.15;;
58647;SDS011;45992;45.920;20.074;2023-01-28T10:53:37;52.78;;;31.10;;
58647;SDS011;45992;45.920;20.074;2023-01-28T10:56:07;43.70;;;25.55;;
58647;SDS011;45992;45.920;20.074;2023-01-28T10:58:35;39.47;;;25.00;;
58647;SDS011;45992;45.920;20.074;2023-01-28T11:01:03;39.22;;;24.08;;
58647;SDS011;45992;45.920;20.074;2023-01-28T11:03:30;36.33;;;22.58;;
58647;SDS011;45992;45.920;20.074;2023-01-28T11:05:58;45.67;;;27.60;;
58647;SDS011;45992;45.920;20.074;2023-01-28T11:08:26;39.35;;;25.27;;
58647;SDS011;45992;45.920;20.074;2023-01-28T11:10:53;49.97;;;30.80;;
58647;SDS011;45992;45.920;20.074;2023-01-28T11:13:20;45.65;;;27.35;;
58647;SDS011;45992;45.920;20.074;2023-01-28T11:15:48;61.53;;;37.30;;
58647;SDS011;45992;45.920;20.074;2023-01-28T11:18:16;56.55;;;35.80;;
58647;SDS011;45992;45.920;20.074;2023-01-28T11:20:48;54.83;;;37.30;;
58647;SDS011;45992;45.920;20.074;2023-01-28T11:23:18;54.35;;;36.63;;
58647;SDS011;45992;45.920;20.074;2023-01-28T11:25:46;41.25;;;25.55;;
58647;SDS011;45992;45.920;20.074;2023-01-28T11:28:19;39.10;;;24.13;;
58647;SDS011;45992;45.920;20.074;2023-01-28T11:30:50;46.78;;;28.10;;
58647;SDS011;45992;45.920;20.074;2023-01-28T11:33:25;36.25;;;22.13;;
58647;SDS011;45992;45.920;20.074;2023-01-28T11:36:02;32.83;;;21.70;;
58647;SDS011;45992;45.920;20.074;2023-01-28T11:38:28;37.75;;;23.58;;
58647;SDS011;45992;45.920;20.074;2023-01-28T11:40:55;33.45;;;21.67;;
58647;SDS011;45992;45.920;20.074;2023-01-28T11:43:23;42.28;;;26.27;;
58647;SDS011;45992;45.920;20.074;2023-01-28T12:12:17;42.00;;;25.95;;
58647;SDS011;45992;45.920;20.074;2023-01-28T12:25:45;44.28;;;28.23;;
58647;SDS011;45992;45.920;20.074;2023-01-28T12:30:54;36.58;;;23.63;;
58647;SDS011;45992;45.920;20.074;2023-01-28T12:36:15;45.05;;;27.60;;
58647;SDS011;45992;45.920;20.074;2023-01-28T12:38:51;39.33;;;26.48;;
58647;SDS011;45992;45.920;20.074;2023-01-28T12:41:22;46.85;;;26.75;;
58647;SDS011;45992;45.920;20.074;2023-01-28T12:48:53;42.13;;;26.17;;
58647;SDS011;45992;45.920;20.074;2023-01-28T12:51:33;42.15;;;27.23;;
58647;SDS011;45992;45.920;20.074;2023-01-28T12:56:37;35.47;;;23.20;;
58647;SDS011;45992;45.920;20.074;2023-01-28T12:59:12;40.90;;;27.33;;
58647;SDS011;45992;45.920;20.074;2023-01-28T13:01:41;36.85;;;23.85;;
58647;SDS011;45992;45.920;20.074;2023-01-28T13:06:46;39.90;;;25.80;;
58647;SDS011;45992;45.920;20.074;2023-01-28T13:09:16;58.80;;;35.53;;
58647;SDS011;45992;45.920;20.074;2023-01-28T13:11:44;49.75;;;34.15;;
58647;SDS011;45992;45.920;20.074;2023-01-28T13:14:11;46.17;;;30.85;;
58647;SDS011;45992;45.920;20.074;2023-01-28T13:16:38;36.08;;;23.35;;
58647;SDS011;45992;45.920;20.074;2023-01-28T13:19:24;45.17;;;29.08;;
58647;SDS011;45992;45.920;20.074;2023-01-28T13:21:50;43.45;;;27.40;;
58647;SDS011;45992;45.920;20.074;2023-01-28T13:24:20;43.60;;;29.48;;
58647;SDS011;45992;45.920;20.074;2023-01-28T13:26:47;44.85;;;30.33;;
58647;SDS011;45992;45.920;20.074;2023-01-28T13:31:41;73.28;;;46.65;;
58647;SDS011;45992;45.920;20.074;2023-01-28T13:34:25;86.50;;;49.28;;
58647;SDS011;45992;45.920;20.074;2023-01-28T13:36:54;72.45;;;42.97;;
58647;SDS011;45992;45.920;20.074;2023-01-28T13:39:23;61.53;;;39.63;;
58647;SDS011;45992;45.920;20.074;2023-01-28T13:41:52;44.10;;;28.48;;
58647;SDS011;45992;45.920;20.074;2023-01-28T13:46:45;52.28;;;32.40;;
58647;SDS011;45992;45.920;20.074;2023-01-28T13:49:14;66.20;;;40.55;;
58647;SDS011;45992;45.920;20.074;2023-01-28T13:51:44;54.90;;;32.63;;
58647;SDS011;45992;45.920;20.074;2023-01-28T13:54:19;45.33;;;29.40;;
58647;SDS011;45992;45.920;20.074;2023-01-28T13:59:45;66.88;;;40.00;;
58647;SDS011;45992;45.920;20.074;2023-01-28T14:05:10;52.00;;;30.33;;
58647;SDS011;45992;45.920;20.074;2023-01-28T14:10:10;55.83;;;39.67;;
58647;SDS011;45992;45.920;20.074;2023-01-28T14:13:01;59.08;;;38.10;;
58647;SDS011;45992;45.920;20.074;2023-01-28T14:15:48;61.72;;;36.60;;
58647;SDS011;45992;45.920;20.074;2023-01-28T14:18:29;70.38;;;40.85;;
58647;SDS011;45992;45.920;20.074;2023-01-28T14:20:59;75.40;;;42.85;;
58647;SDS011;45992;45.920;20.074;2023-01-28T14:23:26;72.22;;;42.75;;
58647;SDS011;45992;45.920;20.074;2023-01-28T14:25:57;49.15;;;31.42;;
58647;SDS011;45992;45.920;20.074;2023-01-28T14:33:47;56.58;;;35.67;;
58647;SDS011;45992;45.920;20.074;2023-01-28T14:36:14;53.90;;;35.83;;
58647;SDS011;45992;45.920;20.074;2023-01-28T14:38:41;60.83;;;35.13;;
58647;SDS011;45992;45.920;20.074;2023-01-28T14:41:08;47.67;;;28.63;;
58647;SDS011;45992;45.920;20.074;2023-01-28T14:43:36;41.65;;;26.38;;
58647;SDS011;45992;45.920;20.074;2023-01-28T14:56:28;52.72;;;34.30;;
58647;SDS011;45992;45.920;20.074;2023-01-28T14:59:01;57.53;;;36.03;;
58647;SDS011;45992;45.920;20.074;2023-01-28T15:01:29;57.38;;;37.17;;
58647;SDS011;45992;45.920;20.074;2023-01-28T15:03:56;52.63;;;32.38;;
58647;SDS011;45992;45.920;20.074;2023-01-28T15:06:24;39.85;;;25.15;;
58647;SDS011;45992;45.920;20.074;2023-01-28T15:08:51;58.47;;;36.10;;
58647;SDS011;45992;45.920;20.074;2023-01-28T15:11:19;60.10;;;35.50;;
58647;SDS011;45992;45.920;20.074;2023-01-28T15:13:46;68.50;;;38.70;;
58647;SDS011;45992;45.920;20.074;2023-01-28T15:16:23;62.78;;;35.65;;
58647;SDS011;45992;45.920;20.074;2023-01-28T15:18:52;51.63;;;30.77;;
58647;SDS011;45992;45.920;20.074;2023-01-28T15:21:19;50.55;;;30.88;;
58647;SDS011;45992;45.920;20.074;2023-01-28T15:23:47;47.88;;;32.05;;
58647;SDS011;45992;45.920;20.074;2023-01-28T15:26:26;50.95;;;31.38;;
58647;SDS011;45992;45.920;20.074;2023-01-28T15:28:54;50.05;;;32.30;;
58647;SDS011;45992;45.920;20.074;2023-01-28T15:31:24;49.88;;;29.35;;
58647;SDS011;45992;45.920;20.074;2023-01-28T15:33:57;53.95;;;31.33;;
58647;SDS011;45992;45.920;20.074;2023-01-28T15:36:24;47.28;;;28.15;;
58647;SDS011;45992;45.920;20.074;2023-01-28T15:38:51;57.70;;;31.38;;
58647;SDS011;45992;45.920;20.074;2023-01-28T15:41:18;53.35;;;29.17;;
58647;SDS011;45992;45.920;20.074;2023-01-28T15:43:45;76.93;;;40.67;;
58647;SDS011;45992;45.920;20.074;2023-01-28T15:46:12;72.10;;;40.30;;
58647;SDS011;45992;45.920;20.074;2023-01-28T15:48:40;90.22;;;49.83;;
58647;SDS011;45992;45.920;20.074;2023-01-28T15:51:14;97.43;;;53.38;;
58647;SDS011;45992;45.920;20.074;2023-01-28T15:53:44;92.45;;;53.83;;
58647;SDS011;45992;45.920;20.074;2023-01-28T15:56:13;75.93;;;46.65;;
58647;SDS011;45992;45.920;20.074;2023-01-28T15:58:39;89.63;;;51.90;;
58647;SDS011;45992;45.920;20.074;2023-01-28T16:03:39;85.13;;;51.60;;
58647;SDS011;45992;45.920;20.074;2023-01-28T16:08:33;108.43;;;62.47;;
58647;SDS011;45992;45.920;20.074;2023-01-28T16:10:59;105.00;;;56.33;;
58647;SDS011;45992;45.920;20.074;2023-01-28T16:13:26;124.35;;;68.55;;
58647;SDS011;45992;45.920;20.074;2023-01-28T16:15:54;117.90;;;65.47;;
58647;SDS011;45992;45.920;20.074;2023-01-28T16:18:37;121.45;;;74.47;;
58647;SDS011;45992;45.920;20.074;2023-01-28T16:21:05;114.75;;;64.72;;
58647;SDS011;45992;45.920;20.074;2023-01-28T16:23:31;119.70;;;63.58;;
58647;SDS011;45992;45.920;20.074;2023-01-28T16:26:01;117.15;;;65.72;;
58647;SDS011;45992;45.920;20.074;2023-01-28T16:28:29;121.43;;;64.85;;
58647;SDS011;45992;45.920;20.074;2023-01-28T16:30:56;115.40;;;63.70;;
58647;SDS011;45992;45.920;20.074;2023-01-28T16:33:23;151.23;;;75.40;;
58647;SDS011;45992;45.920;20.074;2023-01-28T16:35:52;165.05;;;84.43;;
58647;SDS011;45992;45.920;20.074;2023-01-28T16:38:19;111.68;;;59.40;;
58647;SDS011;45992;45.920;20.074;2023-01-28T16:40:45;101.72;;;53.88;;
58647;SDS011;45992;45.920;20.074;2023-01-28T16:43:13;107.85;;;54.13;;
58647;SDS011;45992;45.920;20.074;2023-01-28T16:45:42;92.55;;;48.17;;
58647;SDS011;45992;45.920;20.074;2023-01-28T16:48:10;108.80;;;52.95;;
58647;SDS011;45992;45.920;20.074;2023-01-28T16:50:40;90.85;;;49.97;;
58647;SDS011;45992;45.920;20.074;2023-01-28T16:53:25;104.50;;;55.63;;
58647;SDS011;45992;45.920;20.074;2023-01-28T16:55:53;86.03;;;48.17;;